Time;durP1;ratioP1;P1;durP2;ratioP2;P2;SDS_P1;SDS_P2;PMS_P1;PMS_P2;Temp;Humidity;BMP_temperature;BMP_pressure;BME280_temperature;BME280_humidity;BME280_pressure;Samples;Min_cycle;Max_cycle;Signal;HPM_P1;HPM_P2
2023/11/12 00:05:20;;;;;;;9.38;5.90;;;7.80;99.90;;;;;;20624712;28;20041;-42
2023/11/12 00:15:21;;;;;;;10.38;5.85;;;7.80;99.90;;;;;;20638242;28;20099;-42
2023/11/12 00:25:21;;;;;;;10.02;6.38;;;7.70;99.90;;;;;;20626471;28;20057;-41
2023/11/12 00:35:22;;;;;;;11.70;7.25;;;7.80;99.90;;;;;;20627027;28;20406;-42
2023/11/12 00:45:22;;;;;;;12.80;7.07;;;7.80;99.90;;;;;;20648415;28;20044;-41
2023/11/12 00:55:23;;;;;;;13.38;7.70;;;7.70;99.90;;;;;;20644056;28;20038;-41
2023/11/12 01:05:23;;;;;;;13.05;8.07;;;7.60;99.90;;;;;;20640541;28;20132;-41
2023/11/12 01:15:26;;;;;;;11.20;8.02;;;7.60;99.90;;;;;;20638691;28;20037;-41
2023/11/12 01:25:26;;;;;;;12.07;7.97;;;7.40;99.90;;;;;;20637986;28;20111;-41
2023/11/12 01:35:27;;;;;;;12.90;8.20;;;7.20;99.90;;;;;;20639483;28;20069;-41
2023/11/12 01:45:27;;;;;;;12.65;8.32;;;7.00;99.90;;;;;;20635864;28;20461;-41
2023/11/12 01:55:29;;;;;;;12.02;8.70;;;6.90;99.90;;;;;;20633969;28;20527;-41
2023/11/12 02:05:30;;;;;;;13.98;8.25;;;6.80;99.90;;;;;;20639566;28;20042;-41
2023/11/12 02:15:31;;;;;;;19.90;9.82;;;6.60;99.90;;;;;;20635545;28;20041;-41
2023/11/12 02:25:31;;;;;;;15.05;8.55;;;6.50;99.90;;;;;;20633277;28;20042;-41
2023/11/12 02:35:33;;;;;;;15.93;10.15;;;6.40;99.90;;;;;;20635329;28;20148;-41
2023/11/12 02:45:34;;;;;;;15.27;8.98;;;6.30;99.90;;;;;;20635524;28;20046;-41
2023/11/12 02:55:35;;;;;;;16.85;9.75;;;6.20;99.90;;;;;;20636195;28;20693;-41
2023/11/12 03:05:35;;;;;;;16.63;9.82;;;6.10;99.90;;;;;;20632346;28;20390;-41
2023/11/12 03:15:36;;;;;;;17.38;10.57;;;6.30;99.90;;;;;;20631790;28;20053;-41
2023/11/12 03:25:37;;;;;;;22.17;11.40;;;6.30;99.90;;;;;;20625893;28;20496;-41
2023/11/12 03:35:37;;;;;;;18.77;10.95;;;6.20;99.90;;;;;;21713258;22;20149;-82
2023/11/12 03:45:39;;;;;;;19.00;10.38;;;6.10;99.90;;;;;;20739662;28;20034;-81
2023/11/12 03:55:41;;;;;;;17.45;10.85;;;6.10;99.90;;;;;;20724949;28;20113;-81
2023/11/12 04:05:41;;;;;;;19.20;11.68;;;6.10;99.90;;;;;;20722233;28;20740;-81
2023/11/12 04:15:43;;;;;;;20.83;11.88;;;6.20;99.90;;;;;;20733272;28;20569;-82
2023/11/12 04:25:47;;;;;;;19.65;11.82;;;6.30;99.90;;;;;;20733956;28;20045;-82
2023/11/12 04:35:49;;;;;;;21.25;13.25;;;6.50;99.90;;;;;;20745380;28;20634;-82
2023/11/12 04:45:50;;;;;;;23.83;13.35;;;6.60;99.90;;;;;;20738929;28;20537;-85
2023/11/12 04:55:50;;;;;;;22.27;14.70;;;6.60;99.90;;;;;;20752681;28;20049;-86
2023/11/12 05:05:51;;;;;;;21.25;14.23;;;6.80;99.90;;;;;;20754422;28;20041;-85
2023/11/12 05:15:52;;;;;;;21.27;13.32;;;6.80;99.90;;;;;;20749456;28;20661;-84
2023/11/12 05:25:54;;;;;;;23.35;14.48;;;6.70;99.90;;;;;;20755332;28;20034;-85
2023/11/12 05:35:55;;;;;;;23.35;15.38;;;6.70;99.90;;;;;;20754675;28;20084;-83
2023/11/12 05:45:55;;;;;;;27.08;15.25;;;6.70;99.90;;;;;;20753796;28;20042;-85
2023/11/12 05:55:56;;;;;;;20.50;13.80;;;6.90;99.90;;;;;;20751905;28;20582;-81
2023/11/12 06:05:57;;;;;;;24.08;14.85;;;6.80;99.90;;;;;;20754414;28;20465;-81
2023/11/12 06:15:57;;;;;;;23.25;14.60;;;6.90;99.90;;;;;;20736288;28;20119;-81
2023/11/12 06:25:58;;;;;;;22.80;14.98;;;6.80;99.90;;;;;;20740506;28;20448;-82
2023/11/12 06:35:58;;;;;;;24.35;14.10;;;6.90;99.90;;;;;;20737523;28;20116;-81
2023/11/12 06:45:59;;;;;;;21.98;15.70;;;6.90;99.90;;;;;;20748640;28;20037;-82
2023/11/12 06:55:59;;;;;;;21.25;15.20;;;7.00;99.90;;;;;;20744196;28;20091;-81
2023/11/12 07:06:00;;;;;;;27.67;16.70;;;6.90;99.90;;;;;;20735344;28;20038;-82
2023/11/12 07:16:02;;;;;;;26.15;17.13;;;6.90;99.90;;;;;;20745492;28;20090;-85
2023/11/12 07:26:03;;;;;;;26.23;16.60;;;6.90;99.90;;;;;;20742075;28;20038;-84
2023/11/12 07:36:05;;;;;;;26.63;16.63;;;6.90;99.90;;;;;;20743600;28;20644;-84
2023/11/12 07:46:06;;;;;;;33.63;18.73;;;7.00;99.90;;;;;;20751939;28;20492;-83
2023/11/12 07:56:10;;;;;;;30.73;18.25;;;7.00;99.90;;;;;;20741591;28;20045;-86
2023/11/12 08:06:11;;;;;;;30.13;19.10;;;7.00;99.90;;;;;;20741684;28;20045;-84
2023/11/12 08:16:15;;;;;;;27.48;17.60;;;7.10;99.90;;;;;;20755907;28;20048;-85
2023/11/12 08:26:22;;;;;;;26.42;16.92;;;7.10;99.90;;;;;;20741612;28;20037;-87
2023/11/12 09:10:41;;;;;;;24.77;14.82;;;7.70;99.90;;;;;;20898758;27;1936404;-86
2023/11/12 09:20:43;;;;;;;20.55;13.98;;;8.10;99.90;;;;;;20876197;28;20501;-82
2023/11/12 09:30:44;;;;;;;25.80;14.57;;;8.20;99.90;;;;;;20844524;28;20033;-83
2023/11/12 09:40:44;;;;;;;20.77;14.18;;;8.30;99.90;;;;;;20853726;28;20036;-80
2023/11/12 09:50:47;;;;;;;22.15;15.23;;;8.30;99.90;;;;;;20839933;28;20033;-79
2023/11/12 10:00:49;;;;;;;21.20;14.07;;;8.40;99.90;;;;;;20830136;28;20233;-86
2023/11/12 10:10:50;;;;;;;22.15;16.15;;;8.40;96.80;;;;;;20829492;28;20067;-82
2023/11/12 10:20:51;;;;;;;24.98;15.65;;;8.40;99.90;;;;;;20800194;28;20472;-81
2023/11/12 10:30:53;;;;;;;25.52;16.27;;;8.50;96.00;;;;;;20785151;28;20030;-82
2023/11/12 10:41:04;;;;;;;24.27;15.70;;;8.70;99.80;;;;;;20781773;28;20041;-80
2023/11/12 10:51:07;;;;;;;25.00;14.57;;;9.20;96.60;;;;;;20786333;28;20033;-81
2023/11/12 11:03:55;;;;;;;22.65;13.05;;;9.50;64.70;;;;;;21032782;27;1406876;-80
2023/11/12 11:13:56;;;;;;;19.05;10.43;;;9.60;39.90;;;;;;21086056;28;20077;-80
2023/11/12 11:23:56;;;;;;;19.83;11.25;;;9.50;8.60;;;;;;21093499;28;20035;-81
2023/11/12 11:33:58;;;;;;;22.77;12.30;;;9.50;3.30;;;;;;21086013;28;20035;-80
2023/11/12 11:44:20;;;;;;;27.25;14.15;;;9.20;17.60;;;;;;21084957;28;20566;-80
2023/11/12 11:54:20;;;;;;;29.15;17.60;;;9.40;12.40;;;;;;21088784;28;20063;-81
2023/11/12 12:04:23;;;;;;;22.63;13.40;;;9.30;1.00;;;;;;21088800;28;20040;-82
2023/11/12 12:14:24;;;;;;;20.73;12.85;;;8.70;6.60;;;;;;21041478;28;20551;-80
2023/11/12 12:24:25;;;;;;;19.98;11.70;;;8.30;17.70;;;;;;21022075;28;20036;-83
2023/11/12 12:34:38;;;;;;;18.42;11.65;;;8.00;26.10;;;;;;21020473;28;20119;-83
2023/11/12 12:44:38;;;;;;;16.98;10.52;;;7.60;48.10;;;;;;21023667;28;20115;-84
2023/11/12 12:54:39;;;;;;;15.60;10.20;;;7.50;72.10;;;;;;21012936;28;20058;-83
2023/11/12 13:04:39;;;;;;;20.02;12.23;;;7.40;75.60;;;;;;21015187;28;20036;-86
2023/11/12 13:14:40;;;;;;;19.48;10.88;;;7.60;97.60;;;;;;20999267;28;20036;-87
2023/11/12 13:24:43;;;;;;;17.80;11.38;;;7.50;99.90;;;;;;21015990;28;20461;-85
2023/11/12 13:34:44;;;;;;;20.52;12.70;;;7.50;99.90;;;;;;21041573;28;20084;-84
2023/11/12 13:44:46;;;;;;;18.13;11.95;;;7.50;99.90;;;;;;21041854;28;20036;-84
2023/11/12 13:54:47;;;;;;;23.52;12.98;;;7.50;99.90;;;;;;21033345;28;20470;-84
2023/11/12 14:04:48;;;;;;;23.52;13.15;;;7.60;99.90;;;;;;21039566;28;20094;-83
2023/11/12 14:14:49;;;;;;;20.92;12.05;;;7.60;99.90;;;;;;21036307;28;20029;-86
2023/11/12 14:24:53;;;;;;;23.23;12.05;;;7.30;93.70;;;;;;21034596;28;20025;-85
2023/11/12 14:34:54;;;;;;;22.45;12.15;;;7.10;99.90;;;;;;21039726;28;20606;-87
2023/11/12 14:44:55;;;;;;;22.92;12.38;;;7.00;99.90;;;;;;21041917;28;20028;-85
2023/11/12 14:54:55;;;;;;;24.35;12.60;;;6.90;99.90;;;;;;21042398;28;20051;-84
2023/11/12 15:04:56;;;;;;;20.58;11.27;;;6.90;99.90;;;;;;21043128;28;20471;-85
2023/11/12 15:14:56;;;;;;;26.10;12.77;;;6.80;99.90;;;;;;21048716;28;20042;-85
2023/11/12 15:24:57;;;;;;;25.33;13.00;;;6.80;99.90;;;;;;21038972;28;20483;-83
2023/11/12 15:34:58;;;;;;;25.17;12.93;;;6.70;99.90;;;;;;21031313;28;20059;-83
2023/11/12 15:44:59;;;;;;;25.67;13.95;;;6.70;99.90;;;;;;21038062;28;20085;-82
2023/11/12 15:55:00;;;;;;;30.50;14.18;;;6.60;99.90;;;;;;21038095;28;20391;-83
2023/11/12 16:05:00;;;;;;;25.80;13.67;;;6.70;99.90;;;;;;21044544;28;20553;-83
2023/11/12 16:15:04;;;;;;;27.33;13.23;;;6.80;99.90;;;;;;21043472;28;20467;-83
2023/11/12 16:25:08;;;;;;;30.13;13.65;;;6.70;99.90;;;;;;21033715;28;20513;-83
2023/11/12 16:35:13;;;;;;;30.95;14.75;;;6.60;99.90;;;;;;21043191;28;20391;-83
2023/11/12 16:45:15;;;;;;;41.88;17.60;;;6.60;99.90;;;;;;21050736;28;20071;-82
2023/11/12 16:55:16;;;;;;;25.80;12.18;;;6.70;99.90;;;;;;21043265;28;20460;-86
2023/11/12 17:05:19;;;;;;;27.55;13.48;;;6.80;99.90;;;;;;21046230;28;20064;-84
2023/11/12 17:15:19;;;;;;;34.00;16.00;;;6.60;99.90;;;;;;21043081;28;20086;-84
2023/11/12 17:25:20;;;;;;;39.87;17.90;;;6.60;99.90;;;;;;21036221;28;20106;-84
2023/11/12 17:35:21;;;;;;;36.87;16.37;;;6.70;99.90;;;;;;21041160;28;20453;-84
2023/11/12 17:45:21;;;;;;;40.65;18.75;;;6.80;99.90;;;;;;21039840;28;20939;-84
2023/11/12 17:55:22;;;;;;;47.05;19.15;;;7.00;99.90;;;;;;21032868;28;20051;-84
2023/11/12 18:05:24;;;;;;;45.50;18.45;;;7.10;99.90;;;;;;21035593;28;20059;-84
2023/11/12 18:15:25;;;;;;;42.63;19.20;;;7.20;99.90;;;;;;21035366;28;20138;-84
2023/11/12 18:25:25;;;;;;;49.28;21.35;;;7.10;99.90;;;;;;21033640;28;20199;-84
2023/11/12 18:35:26;;;;;;;48.47;19.60;;;7.30;99.90;;;;;;21035853;28;20127;-84
2023/11/12 18:45:31;;;;;;;46.08;19.48;;;7.20;99.90;;;;;;21033159;28;20562;-84
2023/11/12 18:55:31;;;;;;;39.85;19.52;;;7.20;99.90;;;;;;21023944;28;20602;-84
2023/11/12 19:05:32;;;;;;;49.37;21.33;;;7.10;99.90;;;;;;21023159;28;20491;-84
2023/11/12 19:15:32;;;;;;;41.10;18.35;;;7.20;99.90;;;;;;21009020;28;20446;-83
2023/11/12 19:25:33;;;;;;;41.92;19.08;;;7.00;99.90;;;;;;21011273;28;20032;-83
2023/11/12 19:35:34;;;;;;;39.28;17.30;;;7.00;99.90;;;;;;21024727;28;20058;-84
2023/11/12 19:45:34;;;;;;;41.83;19.55;;;6.90;99.90;;;;;;21016859;28;20467;-83
2023/11/12 19:55:35;;;;;;;50.42;20.80;;;6.90;99.90;;;;;;21041702;28;20062;-84
2023/11/12 20:05:38;;;;;;;41.38;19.45;;;6.80;99.90;;;;;;21021016;28;20036;-83
2023/11/12 20:15:38;;;;;;;38.70;18.33;;;6.80;99.90;;;;;;20983422;28;20043;-84
2023/11/12 20:25:39;;;;;;;40.10;18.48;;;6.70;99.90;;;;;;21035023;28;20032;-84
2023/11/12 20:35:47;;;;;;;43.90;20.27;;;6.70;99.90;;;;;;20965930;28;20503;-85
2023/11/12 20:45:50;;;;;;;;;;;6.60;99.90;;;;;;20949759;28;20032;-83
2023/11/12 20:55:51;;;;;;;50.50;20.60;;;6.50;99.90;;;;;;21000506;28;20248;-82
2023/11/12 21:05:53;;;;;;;44.55;19.55;;;6.40;99.90;;;;;;20999664;28;20068;-83
2023/11/12 21:15:55;;;;;;;45.63;20.65;;;6.20;99.90;;;;;;20982089;28;20501;-85
2023/11/12 21:25:55;;;;;;;38.85;19.50;;;6.20;99.90;;;;;;21003239;28;20119;-85
2023/11/12 21:35:56;;;;;;;42.97;21.65;;;6.10;99.90;;;;;;20957712;28;20040;-85
2023/11/12 21:45:59;;;;;;;43.20;19.65;;;6.00;99.90;;;;;;20963487;28;20074;-85
2023/11/12 21:56:00;;;;;;;35.85;19.15;;;6.10;99.90;;;;;;20989330;28;20044;-83
2023/11/12 22:06:01;;;;;;;38.00;19.45;;;6.20;99.90;;;;;;20985900;28;20420;-84
2023/11/12 22:16:01;;;;;;;33.87;17.53;;;6.20;99.90;;;;;;20981825;28;20045;-85
2023/11/12 22:26:02;;;;;;;31.63;17.47;;;6.20;99.90;;;;;;20992416;28;20513;-87
2023/11/12 22:36:04;;;;;;;34.45;18.10;;;6.30;99.90;;;;;;20997893;28;20466;-85
2023/11/12 22:46:07;;;;;;;34.85;18.85;;;6.30;99.90;;;;;;20984027;28;20157;-85
2023/11/12 22:56:08;;;;;;;33.17;17.27;;;6.30;99.90;;;;;;20992478;28;20308;-86
2023/11/12 23:06:09;;;;;;;31.03;17.13;;;6.30;99.90;;;;;;20984103;28;20036;-85
2023/11/12 23:16:10;;;;;;;28.67;16.25;;;6.30;99.90;;;;;;20997415;28;20221;-86
2023/11/12 23:26:10;;;;;;;30.60;15.82;;;6.20;99.90;;;;;;20978314;28;20143;-86
2023/11/12 23:36:13;;;;;;;27.23;15.60;;;6.10;99.90;;;;;;20976577;28;20036;-84
2023/11/12 23:46:14;;;;;;;24.98;15.25;;;5.90;99.90;;;;;;20984688;28;20063;-84
2023/11/12 23:56:21;;;;;;;24.17;13.68;;;5.80;99.90;;;;;;20975600;28;21332;-84
